sensor_id;sensor_type;location;lat;lon;timestamp;temperature;humidity
58517;DHT22;44308;50.810;0.284;2023-02-22T00:01:13;5.70;99.90
58517;DHT22;44308;50.810;0.284;2023-02-22T00:04:09;5.80;99.90
58517;DHT22;44308;50.810;0.284;2023-02-22T00:06:35;5.80;99.90
58517;DHT22;44308;50.810;0.284;2023-02-22T00:09:01;5.70;99.90
58517;DHT22;44308;50.810;0.284;2023-02-22T00:11:27;5.70;99.90
58517;DHT22;44308;50.810;0.284;2023-02-22T00:13:53;5.80;99.90
58517;DHT22;44308;50.810;0.284;2023-02-22T00:16:22;5.80;99.90
58517;DHT22;44308;50.810;0.284;2023-02-22T00:18:48;5.80;99.90
58517;DHT22;44308;50.810;0.284;2023-02-22T00:21:15;5.90;99.90
58517;DHT22;44308;50.810;0.284;2023-02-22T00:23:44;5.90;99.90
58517;DHT22;44308;50.810;0.284;2023-02-22T00:26:15;5.90;99.90
58517;DHT22;44308;50.810;0.284;2023-02-22T00:28:47;5.90;99.90
58517;DHT22;44308;50.810;0.284;2023-02-22T00:31:13;5.90;99.90
58517;DHT22;44308;50.810;0.284;2023-02-22T00:33:40;5.90;99.90
58517;DHT22;44308;50.810;0.284;2023-02-22T00:36:06;6.00;99.90
58517;DHT22;44308;50.810;0.284;2023-02-22T00:38:32;6.00;99.90
58517;DHT22;44308;50.810;0.284;2023-02-22T00:40:58;6.00;99.90
58517;DHT22;44308;50.810;0.284;2023-02-22T00:43:23;6.00;99.90
58517;DHT22;44308;50.810;0.284;2023-02-22T00:45:50;6.10;99.90
58517;DHT22;44308;50.810;0.284;2023-02-22T00:48:15;6.00;99.90
58517;DHT22;44308;50.810;0.284;2023-02-22T00:50:41;6.00;99.90
58517;DHT22;44308;50.810;0.284;2023-02-22T00:53:07;6.00;99.90
58517;DHT22;44308;50.810;0.284;2023-02-22T00:55:36;6.00;99.90
58517;DHT22;44308;50.810;0.284;2023-02-22T00:58:04;6.00;99.90
58517;DHT22;44308;50.810;0.284;2023-02-22T01:00:33;6.00;99.90
58517;DHT22;44308;50.810;0.284;2023-02-22T01:02:59;5.90;99.90
58517;DHT22;44308;50.810;0.284;2023-02-22T01:05:28;5.90;99.90
58517;DHT22;44308;50.810;0.284;2023-02-22T01:07:55;5.90;99.90
58517;DHT22;44308;50.810;0.284;2023-02-22T01:10:23;5.90;99.90
58517;DHT22;44308;50.810;0.284;2023-02-22T01:12:50;5.90;99.90
58517;DHT22;44308;50.810;0.284;2023-02-22T01:15:19;5.90;99.90
58517;DHT22;44308;50.810;0.284;2023-02-22T01:17:51;5.90;99.90
58517;DHT22;44308;50.810;0.284;2023-02-22T01:20:19;5.90;99.90
58517;DHT22;44308;50.810;0.284;2023-02-22T01:22:48;5.90;99.90
58517;DHT22;44308;50.810;0.284;2023-02-22T01:25:20;5.80;99.90
58517;DHT22;44308;50.810;0.284;2023-02-22T01:27:46;5.80;99.90
58517;DHT22;44308;50.810;0.284;2023-02-22T01:30:13;5.80;99.90
58517;DHT22;44308;50.810;0.284;2023-02-22T01:32:40;5.80;99.90
58517;DHT22;44308;50.810;0.284;2023-02-22T01:35:12;5.80;99.90
58517;DHT22;44308;50.810;0.284;2023-02-22T01:37:58;5.80;99.90
58517;DHT22;44308;50.810;0.284;2023-02-22T01:40:32;5.80;99.90
58517;DHT22;44308;50.810;0.284;2023-02-22T01:43:02;5.80;99.90
58517;DHT22;44308;50.810;0.284;2023-02-22T01:50:41;5.80;99.90
58517;DHT22;44308;50.810;0.284;2023-02-22T01:53:10;5.90;99.90
58517;DHT22;44308;50.810;0.284;2023-02-22T01:55:37;5.90;99.90
58517;DHT22;44308;50.810;0.284;2023-02-22T01:58:05;5.90;99.90
58517;DHT22;44308;50.810;0.284;2023-02-22T02:00:32;5.90;99.90
58517;DHT22;44308;50.810;0.284;2023-02-22T02:03:02;6.00;99.90
58517;DHT22;44308;50.810;0.284;2023-02-22T02:05:30;6.00;99.90
58517;DHT22;44308;50.810;0.284;2023-02-22T02:07:58;6.00;99.90
58517;DHT22;44308;50.810;0.284;2023-02-22T02:10:28;6.00;99.90
58517;DHT22;44308;50.810;0.284;2023-02-22T02:12:55;6.00;99.90
58517;DHT22;44308;50.810;0.284;2023-02-22T02:15:26;6.00;99.90
58517;DHT22;44308;50.810;0.284;2023-02-22T02:18:08;6.00;99.90
58517;DHT22;44308;50.810;0.284;2023-02-22T02:21:06;6.00;99.90
58517;DHT22;44308;50.810;0.284;2023-02-22T02:32:26;6.10;99.90
58517;DHT22;44308;50.810;0.284;2023-02-22T02:35:03;6.10;99.90
58517;DHT22;44308;50.810;0.284;2023-02-22T02:37:52;6.10;99.90
58517;DHT22;44308;50.810;0.284;2023-02-22T02:40:24;6.10;99.90
58517;DHT22;44308;50.810;0.284;2023-02-22T02:45:38;6.00;99.90
58517;DHT22;44308;50.810;0.284;2023-02-22T02:48:11;6.00;99.90
58517;DHT22;44308;50.810;0.284;2023-02-22T02:50:41;6.00;99.90
58517;DHT22;44308;50.810;0.284;2023-02-22T02:53:09;6.00;99.90
58517;DHT22;44308;50.810;0.284;2023-02-22T02:55:36;6.00;99.90
58517;DHT22;44308;50.810;0.284;2023-02-22T02:58:05;6.10;99.90
58517;DHT22;44308;50.810;0.284;2023-02-22T03:00:33;6.10;99.90
58517;DHT22;44308;50.810;0.284;2023-02-22T03:03:22;6.10;99.90
58517;DHT22;44308;50.810;0.284;2023-02-22T03:06:15;6.10;99.90
58517;DHT22;44308;50.810;0.284;2023-02-22T03:09:01;6.10;99.90
58517;DHT22;44308;50.810;0.284;2023-02-22T03:11:50;6.10;99.90
58517;DHT22;44308;50.810;0.284;2023-02-22T03:17:51;6.10;99.90
58517;DHT22;44308;50.810;0.284;2023-02-22T03:19:55;6.10;99.90
58517;DHT22;44308;50.810;0.284;2023-02-22T03:22:32;6.20;99.90
58517;DHT22;44308;50.810;0.284;2023-02-22T03:25:12;6.10;99.90
58517;DHT22;44308;50.810;0.284;2023-02-22T03:27:49;6.20;99.90
58517;DHT22;44308;50.810;0.284;2023-02-22T03:33:18;6.20;99.90
58517;DHT22;44308;50.810;0.284;2023-02-22T03:36:24;6.20;99.90
58517;DHT22;44308;50.810;0.284;2023-02-22T03:38:52;6.20;99.90
58517;DHT22;44308;50.810;0.284;2023-02-22T03:41:25;6.20;99.90
58517;DHT22;44308;50.810;0.284;2023-02-22T03:44:05;6.20;99.90
58517;DHT22;44308;50.810;0.284;2023-02-22T03:46:38;6.20;99.90
58517;DHT22;44308;50.810;0.284;2023-02-22T03:49:11;6.20;99.90
58517;DHT22;44308;50.810;0.284;2023-02-22T03:51:39;6.30;99.90
58517;DHT22;44308;50.810;0.284;2023-02-22T03:54:06;6.30;99.90
58517;DHT22;44308;50.810;0.284;2023-02-22T03:56:43;6.30;99.90
58517;DHT22;44308;50.810;0.284;2023-02-22T03:59:12;6.20;99.90
58517;DHT22;44308;50.810;0.284;2023-02-22T04:01:37;6.20;99.90
58517;DHT22;44308;50.810;0.284;2023-02-22T04:04:03;6.20;99.90
58517;DHT22;44308;50.810;0.284;2023-02-22T04:06:30;6.10;99.90
58517;DHT22;44308;50.810;0.284;2023-02-22T04:08:56;6.20;99.90
58517;DHT22;44308;50.810;0.284;2023-02-22T04:11:21;6.20;99.90
58517;DHT22;44308;50.810;0.284;2023-02-22T04:13:47;6.10;99.90
58517;DHT22;44308;50.810;0.284;2023-02-22T04:16:14;6.10;99.90
58517;DHT22;44308;50.810;0.284;2023-02-22T04:18:40;6.10;99.90
58517;DHT22;44308;50.810;0.284;2023-02-22T04:21:06;6.10;99.90
58517;DHT22;44308;50.810;0.284;2023-02-22T04:23:33;6.10;99.90
58517;DHT22;44308;50.810;0.284;2023-02-22T04:25:59;6.10;99.90
58517;DHT22;44308;50.810;0.284;2023-02-22T04:28:25;6.00;99.90
58517;DHT22;44308;50.810;0.284;2023-02-22T04:30:50;6.00;99.90
58517;DHT22;44308;50.810;0.284;2023-02-22T04:33:16;6.00;99.90
58517;DHT22;44308;50.810;0.284;2023-02-22T04:35:42;6.00;99.90
58517;DHT22;44308;50.810;0.284;2023-02-22T04:38:08;5.90;99.90
58517;DHT22;44308;50.810;0.284;2023-02-22T04:40:36;5.90;99.90
58517;DHT22;44308;50.810;0.284;2023-02-22T04:43:02;5.90;99.90
58517;DHT22;44308;50.810;0.284;2023-02-22T04:45:28;5.90;99.90
58517;DHT22;44308;50.810;0.284;2023-02-22T04:47:54;5.90;99.90
58517;DHT22;44308;50.810;0.284;2023-02-22T04:50:19;5.90;99.90
58517;DHT22;44308;50.810;0.284;2023-02-22T04:52:45;5.90;99.90
58517;DHT22;44308;50.810;0.284;2023-02-22T04:55:14;5.90;99.90
58517;DHT22;44308;50.810;0.284;2023-02-22T04:57:42;5.90;99.90
58517;DHT22;44308;50.810;0.284;2023-02-22T05:00:08;6.00;99.90
58517;DHT22;44308;50.810;0.284;2023-02-22T05:02:37;6.10;99.90
58517;DHT22;44308;50.810;0.284;2023-02-22T05:05:04;6.20;99.90
58517;DHT22;44308;50.810;0.284;2023-02-22T05:07:30;6.30;99.90
58517;DHT22;44308;50.810;0.284;2023-02-22T05:09:56;6.40;99.90
58517;DHT22;44308;50.810;0.284;2023-02-22T05:12:21;6.40;99.90
58517;DHT22;44308;50.810;0.284;2023-02-22T05:14:47;6.40;99.90
58517;DHT22;44308;50.810;0.284;2023-02-22T05:17:14;6.40;99.90
58517;DHT22;44308;50.810;0.284;2023-02-22T05:19:40;6.40;99.90
58517;DHT22;44308;50.810;0.284;2023-02-22T05:22:06;6.50;99.90
58517;DHT22;44308;50.810;0.284;2023-02-22T05:24:32;6.50;99.90
58517;DHT22;44308;50.810;0.284;2023-02-22T05:27:00;6.50;99.90
58517;DHT22;44308;50.810;0.284;2023-02-22T05:29:25;6.50;99.90
58517;DHT22;44308;50.810;0.284;2023-02-22T05:31:51;6.60;99.90
58517;DHT22;44308;50.810;0.284;2023-02-22T05:34:17;6.60;99.90
58517;DHT22;44308;50.810;0.284;2023-02-22T05:36:43;6.70;99.90
58517;DHT22;44308;50.810;0.284;2023-02-22T05:39:08;6.70;99.90
58517;DHT22;44308;50.810;0.284;2023-02-22T05:41:34;6.70;99.90
58517;DHT22;44308;50.810;0.284;2023-02-22T05:44:00;6.70;99.90
58517;DHT22;44308;50.810;0.284;2023-02-22T05:46:28;6.70;99.90
58517;DHT22;44308;50.810;0.284;2023-02-22T05:48:54;6.70;99.90
58517;DHT22;44308;50.810;0.284;2023-02-22T05:51:20;6.70;99.90
58517;DHT22;44308;50.810;0.284;2023-02-22T05:53:45;6.70;99.90
58517;DHT22;44308;50.810;0.284;2023-02-22T05:56:11;6.70;99.90
58517;DHT22;44308;50.810;0.284;2023-02-22T05:58:37;6.60;99.90
58517;DHT22;44308;50.810;0.284;2023-02-22T06:01:03;6.60;99.90
58517;DHT22;44308;50.810;0.284;2023-02-22T06:03:28;6.50;99.90
58517;DHT22;44308;50.810;0.284;2023-02-22T06:05:54;6.50;99.90
58517;DHT22;44308;50.810;0.284;2023-02-22T06:08:20;6.40;99.90
58517;DHT22;44308;50.810;0.284;2023-02-22T06:10:45;6.30;99.90
58517;DHT22;44308;50.810;0.284;2023-02-22T06:13:11;6.30;99.90
58517;DHT22;44308;50.810;0.284;2023-02-22T06:15:37;6.20;99.90
58517;DHT22;44308;50.810;0.284;2023-02-22T06:18:05;6.20;99.90
58517;DHT22;44308;50.810;0.284;2023-02-22T06:20:31;6.10;99.90
58517;DHT22;44308;50.810;0.284;2023-02-22T06:22:57;6.10;99.90
58517;DHT22;44308;50.810;0.284;2023-02-22T06:25:29;6.10;99.90
58517;DHT22;44308;50.810;0.284;2023-02-22T06:27:59;6.10;99.90
58517;DHT22;44308;50.810;0.284;2023-02-22T06:30:26;6.20;99.90
58517;DHT22;44308;50.810;0.284;2023-02-22T06:32:52;6.20;99.90
58517;DHT22;44308;50.810;0.284;2023-02-22T06:35:18;6.30;99.90
58517;DHT22;44308;50.810;0.284;2023-02-22T06:40:49;6.40;99.90
58517;DHT22;44308;50.810;0.284;2023-02-22T06:43:15;6.40;99.90
58517;DHT22;44308;50.810;0.284;2023-02-22T06:45:41;6.40;99.90
58517;DHT22;44308;50.810;0.284;2023-02-22T06:48:07;6.50;99.90
58517;DHT22;44308;50.810;0.284;2023-02-22T06:50:33;6.60;99.90
58517;DHT22;44308;50.810;0.284;2023-02-22T06:52:59;6.60;99.90
58517;DHT22;44308;50.810;0.284;2023-02-22T06:55:27;6.60;99.90
58517;DHT22;44308;50.810;0.284;2023-02-22T06:57:53;6.60;99.90
58517;DHT22;44308;50.810;0.284;2023-02-22T07:00:21;6.60;99.90
58517;DHT22;44308;50.810;0.284;2023-02-22T07:02:47;6.70;99.90
58517;DHT22;44308;50.810;0.284;2023-02-22T07:05:15;6.60;99.90
58517;DHT22;44308;50.810;0.284;2023-02-22T07:07:42;6.70;99.90
58517;DHT22;44308;50.810;0.284;2023-02-22T07:10:22;6.70;99.90
58517;DHT22;44308;50.810;0.284;2023-02-22T07:12:47;6.80;99.90
58517;DHT22;44308;50.810;0.284;2023-02-22T07:15:14;6.90;99.90
58517;DHT22;44308;50.810;0.284;2023-02-22T07:18:02;6.90;99.90
58517;DHT22;44308;50.810;0.284;2023-02-22T07:20:29;6.90;99.90
58517;DHT22;44308;50.810;0.284;2023-02-22T07:22:55;6.90;99.90
58517;DHT22;44308;50.810;0.284;2023-02-22T07:25:22;6.90;99.90
58517;DHT22;44308;50.810;0.284;2023-02-22T07:27:48;6.90;99.90
58517;DHT22;44308;50.810;0.284;2023-02-22T07:32:51;6.90;99.90
58517;DHT22;44308;50.810;0.284;2023-02-22T07:35:19;7.00;99.90
58517;DHT22;44308;50.810;0.284;2023-02-22T07:37:46;7.00;99.90
58517;DHT22;44308;50.810;0.284;2023-02-22T07:40:13;7.10;99.90
58517;DHT22;44308;50.810;0.284;2023-02-22T07:43:01;7.10;99.90
58517;DHT22;44308;50.810;0.284;2023-02-22T07:45:29;7.20;99.90
58517;DHT22;44308;50.810;0.284;2023-02-22T07:50:58;7.30;99.90
58517;DHT22;44308;50.810;0.284;2023-02-22T07:53:29;7.40;99.90
58517;DHT22;44308;50.810;0.284;2023-02-22T07:55:57;7.40;99.90
58517;DHT22;44308;50.810;0.284;2023-02-22T07:58:24;7.40;99.90
58517;DHT22;44308;50.810;0.284;2023-02-22T08:00:50;7.40;99.90
58517;DHT22;44308;50.810;0.284;2023-02-22T08:03:18;7.50;99.90
58517;DHT22;44308;50.810;0.284;2023-02-22T08:05:46;7.50;99.90
58517;DHT22;44308;50.810;0.284;2023-02-22T08:08:12;7.60;99.90
58517;DHT22;44308;50.810;0.284;2023-02-22T08:10:42;7.70;99.90
58517;DHT22;44308;50.810;0.284;2023-02-22T08:13:09;7.70;99.90
58517;DHT22;44308;50.810;0.284;2023-02-22T08:15:37;7.80;99.90
58517;DHT22;44308;50.810;0.284;2023-02-22T08:18:06;7.70;99.90
58517;DHT22;44308;50.810;0.284;2023-02-22T08:20:36;7.70;99.90
58517;DHT22;44308;50.810;0.284;2023-02-22T08:23:02;7.80;99.90
58517;DHT22;44308;50.810;0.284;2023-02-22T08:25:29;7.70;99.90
58517;DHT22;44308;50.810;0.284;2023-02-22T08:28:04;7.70;99.90
58517;DHT22;44308;50.810;0.284;2023-02-22T08:30:31;7.80;99.90
58517;DHT22;44308;50.810;0.284;2023-02-22T08:32:59;7.80;99.90
58517;DHT22;44308;50.810;0.284;2023-02-22T08:35:27;7.90;99.90
58517;DHT22;44308;50.810;0.284;2023-02-22T08:37:56;7.90;99.90
58517;DHT22;44308;50.810;0.284;2023-02-22T08:40:27;8.00;99.90
58517;DHT22;44308;50.810;0.284;2023-02-22T08:42:54;8.00;99.90
58517;DHT22;44308;50.810;0.284;2023-02-22T08:45:19;8.10;99.90
58517;DHT22;44308;50.810;0.284;2023-02-22T08:47:45;8.20;99.90
58517;DHT22;44308;50.810;0.284;2023-02-22T08:50:23;8.30;99.90
58517;DHT22;44308;50.810;0.284;2023-02-22T08:52:50;8.40;99.90
58517;DHT22;44308;50.810;0.284;2023-02-22T08:55:22;8.40;99.90
58517;DHT22;44308;50.810;0.284;2023-02-22T08:57:50;8.50;99.90
58517;DHT22;44308;50.810;0.284;2023-02-22T09:00:17;8.50;99.90
58517;DHT22;44308;50.810;0.284;2023-02-22T09:02:43;8.60;99.90
58517;DHT22;44308;50.810;0.284;2023-02-22T09:05:09;8.70;99.90
58517;DHT22;44308;50.810;0.284;2023-02-22T09:07:55;8.70;99.90
58517;DHT22;44308;50.810;0.284;2023-02-22T09:10:23;8.70;99.90
58517;DHT22;44308;50.810;0.284;2023-02-22T09:12:53;8.90;99.90
58517;DHT22;44308;50.810;0.284;2023-02-22T09:15:24;8.90;99.90
58517;DHT22;44308;50.810;0.284;2023-02-22T09:17:51;9.00;99.90
58517;DHT22;44308;50.810;0.284;2023-02-22T09:20:19;9.10;99.90
58517;DHT22;44308;50.810;0.284;2023-02-22T09:22:46;9.10;99.90
58517;DHT22;44308;50.810;0.284;2023-02-22T09:25:12;9.20;99.90
58517;DHT22;44308;50.810;0.284;2023-02-22T09:27:39;9.30;99.90
58517;DHT22;44308;50.810;0.284;2023-02-22T09:30:05;9.40;99.90
58517;DHT22;44308;50.810;0.284;2023-02-22T09:32:35;9.40;99.90
58517;DHT22;44308;50.810;0.284;2023-02-22T09:35:01;9.50;99.90
58517;DHT22;44308;50.810;0.284;2023-02-22T09:37:28;9.40;99.90
58517;DHT22;44308;50.810;0.284;2023-02-22T09:39:53;9.40;99.90
58517;DHT22;44308;50.810;0.284;2023-02-22T09:42:38;9.50;99.90
58517;DHT22;44308;50.810;0.284;2023-02-22T09:45:19;9.50;99.90
58517;DHT22;44308;50.810;0.284;2023-02-22T09:47:59;9.60;99.90
58517;DHT22;44308;50.810;0.284;2023-02-22T09:50:36;9.60;99.90
58517;DHT22;44308;50.810;0.284;2023-02-22T09:53:06;9.60;99.90
58517;DHT22;44308;50.810;0.284;2023-02-22T09:55:42;9.60;99.90
58517;DHT22;44308;50.810;0.284;2023-02-22T09:58:24;9.50;99.90
58517;DHT22;44308;50.810;0.284;2023-02-22T10:00:56;9.60;99.90
58517;DHT22;44308;50.810;0.284;2023-02-22T10:03:37;9.60;99.90
58517;DHT22;44308;50.810;0.284;2023-02-22T10:06:13;9.60;99.90
58517;DHT22;44308;50.810;0.284;2023-02-22T10:08:41;9.60;99.90
58517;DHT22;44308;50.810;0.284;2023-02-22T10:14:00;9.70;99.90
58517;DHT22;44308;50.810;0.284;2023-02-22T10:16:46;9.90;99.90
58517;DHT22;44308;50.810;0.284;2023-02-22T10:25:14;10.00;99.90
58517;DHT22;44308;50.810;0.284;2023-02-22T10:30:38;10.10;99.90
58517;DHT22;44308;50.810;0.284;2023-02-22T10:33:20;10.00;99.90
58517;DHT22;44308;50.810;0.284;2023-02-22T10:35:47;10.10;99.90
58517;DHT22;44308;50.810;0.284;2023-02-22T10:38:18;10.10;99.90
58517;DHT22;44308;50.810;0.284;2023-02-22T10:40:52;10.10;99.90
58517;DHT22;44308;50.810;0.284;2023-02-22T10:43:20;9.90;99.90
58517;DHT22;44308;50.810;0.284;2023-02-22T10:45:46;9.90;99.90
58517;DHT22;44308;50.810;0.284;2023-02-22T10:48:16;9.80;99.90
58517;DHT22;44308;50.810;0.284;2023-02-22T10:50:45;9.80;99.90
58517;DHT22;44308;50.810;0.284;2023-02-22T10:53:11;9.70;99.90
58517;DHT22;44308;50.810;0.284;2023-02-22T11:04:17;9.80;99.90
58517;DHT22;44308;50.810;0.284;2023-02-22T11:07:04;9.80;99.90
58517;DHT22;44308;50.810;0.284;2023-02-22T11:09:45;9.80;99.90
58517;DHT22;44308;50.810;0.284;2023-02-22T11:12:20;9.70;99.90
58517;DHT22;44308;50.810;0.284;2023-02-22T11:14:50;9.70;99.90
58517;DHT22;44308;50.810;0.284;2023-02-22T11:17:25;9.70;99.90
58517;DHT22;44308;50.810;0.284;2023-02-22T11:19:53;9.70;99.90
58517;DHT22;44308;50.810;0.284;2023-02-22T11:22:34;9.60;99.90
58517;DHT22;44308;50.810;0.284;2023-02-22T11:25:03;9.60;99.90
58517;DHT22;44308;50.810;0.284;2023-02-22T11:27:40;9.50;99.90
58517;DHT22;44308;50.810;0.284;2023-02-22T11:32:51;9.50;99.90
58517;DHT22;44308;50.810;0.284;2023-02-22T11:35:48;9.60;99.90
58517;DHT22;44308;50.810;0.284;2023-02-22T11:38:17;9.60;99.90
58517;DHT22;44308;50.810;0.284;2023-02-22T11:40:46;9.60;99.90
58517;DHT22;44308;50.810;0.284;2023-02-22T11:43:18;9.60;99.90
58517;DHT22;44308;50.810;0.284;2023-02-22T11:48:26;9.80;99.90
58517;DHT22;44308;50.810;0.284;2023-02-22T11:58:52;10.00;99.90
58517;DHT22;44308;50.810;0.284;2023-02-22T12:01:37;10.10;99.90
58517;DHT22;44308;50.810;0.284;2023-02-22T12:04:22;10.20;99.90
58517;DHT22;44308;50.810;0.284;2023-02-22T12:12:40;10.20;99.90
58517;DHT22;44308;50.810;0.284;2023-02-22T12:15:23;10.30;99.90
58517;DHT22;44308;50.810;0.284;2023-02-22T12:20:37;10.30;99.90
58517;DHT22;44308;50.810;0.284;2023-02-22T12:26:12;10.20;99.90
58517;DHT22;44308;50.810;0.284;2023-02-22T12:31:41;10.40;99.90
58517;DHT22;44308;50.810;0.284;2023-02-22T12:34:23;10.30;99.90
58517;DHT22;44308;50.810;0.284;2023-02-22T12:37:26;10.20;99.90
58517;DHT22;44308;50.810;0.284;2023-02-22T12:40:03;10.20;99.90
58517;DHT22;44308;50.810;0.284;2023-02-22T12:43:01;10.20;99.90
58517;DHT22;44308;50.810;0.284;2023-02-22T12:45:40;10.20;99.90
58517;DHT22;44308;50.810;0.284;2023-02-22T12:57:02;10.20;99.90
58517;DHT22;44308;50.810;0.284;2023-02-22T12:59:40;10.10;99.90
58517;DHT22;44308;50.810;0.284;2023-02-22T13:02:11;10.20;99.90
58517;DHT22;44308;50.810;0.284;2023-02-22T13:04:40;10.30;99.90
58517;DHT22;44308;50.810;0.284;2023-02-22T13:12:20;10.50;99.90
58517;DHT22;44308;50.810;0.284;2023-02-22T13:15:12;10.50;99.90
58517;DHT22;44308;50.810;0.284;2023-02-22T13:18:09;10.50;99.90
58517;DHT22;44308;50.810;0.284;2023-02-22T13:26:31;10.40;99.90
58517;DHT22;44308;50.810;0.284;2023-02-22T13:32:04;10.40;99.90
58517;DHT22;44308;50.810;0.284;2023-02-22T13:35:18;10.40;99.90
58517;DHT22;44308;50.810;0.284;2023-02-22T13:40:34;10.50;99.90
58517;DHT22;44308;50.810;0.284;2023-02-22T13:51:50;10.60;99.90
58517;DHT22;44308;50.810;0.284;2023-02-22T13:54:37;10.50;99.90
58517;DHT22;44308;50.810;0.284;2023-02-22T13:57:44;10.60;99.90
58517;DHT22;44308;50.810;0.284;2023-02-22T14:10:54;10.80;99.90
58517;DHT22;44308;50.810;0.284;2023-02-22T14:13:25;10.70;99.90
58517;DHT22;44308;50.810;0.284;2023-02-22T14:18:43;10.70;99.90
58517;DHT22;44308;50.810;0.284;2023-02-22T14:21:09;10.60;99.90
58517;DHT22;44308;50.810;0.284;2023-02-22T14:23:40;10.50;99.90
58517;DHT22;44308;50.810;0.284;2023-02-22T14:31:26;10.40;99.90
58517;DHT22;44308;50.810;0.284;2023-02-22T14:36:36;10.30;99.90
58517;DHT22;44308;50.810;0.284;2023-02-22T14:44:59;10.30;99.90
58517;DHT22;44308;50.810;0.284;2023-02-22T14:47:31;10.30;99.90
58517;DHT22;44308;50.810;0.284;2023-02-22T14:50:26;10.20;99.90
58517;DHT22;44308;50.810;0.284;2023-02-22T14:55:36;10.30;99.90
58517;DHT22;44308;50.810;0.284;2023-02-22T14:58:12;10.30;99.90
58517;DHT22;44308;50.810;0.284;2023-02-22T15:00:48;10.40;99.90
58517;DHT22;44308;50.810;0.284;2023-02-22T15:03:28;10.40;99.90
58517;DHT22;44308;50.810;0.284;2023-02-22T15:06:09;10.40;99.90
58517;DHT22;44308;50.810;0.284;2023-02-22T15:08:40;10.40;99.90
58517;DHT22;44308;50.810;0.284;2023-02-22T15:11:18;10.40;99.90
58517;DHT22;44308;50.810;0.284;2023-02-22T15:13:53;10.40;99.90
58517;DHT22;44308;50.810;0.284;2023-02-22T15:16:20;10.40;99.90
58517;DHT22;44308;50.810;0.284;2023-02-22T15:18:51;10.30;99.90
58517;DHT22;44308;50.810;0.284;2023-02-22T15:21:23;10.30;99.90
58517;DHT22;44308;50.810;0.284;2023-02-22T15:23:55;10.30;99.90
58517;DHT22;44308;50.810;0.284;2023-02-22T15:29:07;10.10;99.90
58517;DHT22;44308;50.810;0.284;2023-02-22T15:31:36;10.10;99.90
58517;DHT22;44308;50.810;0.284;2023-02-22T15:36:44;10.00;99.90
58517;DHT22;44308;50.810;0.284;2023-02-22T15:39:36;10.00;99.90
58517;DHT22;44308;50.810;0.284;2023-02-22T15:42:16;10.00;99.90
58517;DHT22;44308;50.810;0.284;2023-02-22T15:44:53;9.90;99.90
58517;DHT22;44308;50.810;0.284;2023-02-22T15:47:27;9.90;99.90
58517;DHT22;44308;50.810;0.284;2023-02-22T15:55:27;9.80;99.90
58517;DHT22;44308;50.810;0.284;2023-02-22T15:57:59;9.80;99.90
58517;DHT22;44308;50.810;0.284;2023-02-22T16:00:37;9.80;99.90
58517;DHT22;44308;50.810;0.284;2023-02-22T16:03:07;9.80;99.90
58517;DHT22;44308;50.810;0.284;2023-02-22T16:05:44;9.80;99.90
58517;DHT22;44308;50.810;0.284;2023-02-22T16:08:17;9.80;99.90
58517;DHT22;44308;50.810;0.284;2023-02-22T16:11:06;9.80;99.90
58517;DHT22;44308;50.810;0.284;2023-02-22T16:13:38;9.80;99.90
58517;DHT22;44308;50.810;0.284;2023-02-22T16:16:21;9.90;99.90
58517;DHT22;44308;50.810;0.284;2023-02-22T16:18:48;9.80;99.90
58517;DHT22;44308;50.810;0.284;2023-02-22T16:21:19;9.90;99.90
58517;DHT22;44308;50.810;0.284;2023-02-22T16:23:53;9.90;99.90
58517;DHT22;44308;50.810;0.284;2023-02-22T16:29:06;9.90;99.90
58517;DHT22;44308;50.810;0.284;2023-02-22T16:31:34;9.80;99.90
58517;DHT22;44308;50.810;0.284;2023-02-22T16:34:02;9.90;99.90
58517;DHT22;44308;50.810;0.284;2023-02-22T16:36:49;9.80;99.90
58517;DHT22;44308;50.810;0.284;2023-02-22T16:39:31;9.80;99.90
58517;DHT22;44308;50.810;0.284;2023-02-22T16:41:59;9.80;99.90
58517;DHT22;44308;50.810;0.284;2023-02-22T16:44:25;9.70;99.90
58517;DHT22;44308;50.810;0.284;2023-02-22T16:46:58;9.70;99.90
58517;DHT22;44308;50.810;0.284;2023-02-22T16:49:24;9.70;99.90
58517;DHT22;44308;50.810;0.284;2023-02-22T16:51:52;9.60;99.90
58517;DHT22;44308;50.810;0.284;2023-02-22T16:54:25;9.50;99.90
58517;DHT22;44308;50.810;0.284;2023-02-22T16:56:55;9.50;99.90
58517;DHT22;44308;50.810;0.284;2023-02-22T16:59:25;9.50;99.90
58517;DHT22;44308;50.810;0.284;2023-02-22T17:01:54;9.50;99.90
58517;DHT22;44308;50.810;0.284;2023-02-22T17:04:31;9.50;99.90
58517;DHT22;44308;50.810;0.284;2023-02-22T17:06:57;9.50;99.90
58517;DHT22;44308;50.810;0.284;2023-02-22T17:09:27;9.50;99.90
58517;DHT22;44308;50.810;0.284;2023-02-22T17:11:53;9.50;99.90
58517;DHT22;44308;50.810;0.284;2023-02-22T17:14:22;9.50;99.90
58517;DHT22;44308;50.810;0.284;2023-02-22T17:16:52;9.40;99.90
58517;DHT22;44308;50.810;0.284;2023-02-22T17:19:20;9.40;99.90
58517;DHT22;44308;50.810;0.284;2023-02-22T17:21:47;9.40;99.90
58517;DHT22;44308;50.810;0.284;2023-02-22T17:24:16;9.40;99.90
58517;DHT22;44308;50.810;0.284;2023-02-22T17:26:46;9.40;99.90
58517;DHT22;44308;50.810;0.284;2023-02-22T17:29:12;9.40;99.90
58517;DHT22;44308;50.810;0.284;2023-02-22T17:31:39;9.30;99.90
58517;DHT22;44308;50.810;0.284;2023-02-22T17:34:06;9.30;99.90
58517;DHT22;44308;50.810;0.284;2023-02-22T17:36:33;9.30;99.90
58517;DHT22;44308;50.810;0.284;2023-02-22T17:38:59;9.30;99.90
58517;DHT22;44308;50.810;0.284;2023-02-22T17:41:25;9.30;99.90
58517;DHT22;44308;50.810;0.284;2023-02-22T17:43:50;9.30;99.90
58517;DHT22;44308;50.810;0.284;2023-02-22T17:46:19;9.30;99.90
58517;DHT22;44308;50.810;0.284;2023-02-22T17:48:45;9.20;99.90
58517;DHT22;44308;50.810;0.284;2023-02-22T17:51:13;9.30;99.90
58517;DHT22;44308;50.810;0.284;2023-02-22T17:53:39;9.20;99.90
58517;DHT22;44308;50.810;0.284;2023-02-22T17:56:10;9.20;99.90
58517;DHT22;44308;50.810;0.284;2023-02-22T17:58:38;9.20;99.90
58517;DHT22;44308;50.810;0.284;2023-02-22T18:01:05;9.20;99.90
58517;DHT22;44308;50.810;0.284;2023-02-22T18:03:31;9.20;99.90
58517;DHT22;44308;50.810;0.284;2023-02-22T18:06:00;9.20;99.90
58517;DHT22;44308;50.810;0.284;2023-02-22T18:08:27;9.10;99.90
58517;DHT22;44308;50.810;0.284;2023-02-22T18:10:54;9.20;99.90
58517;DHT22;44308;50.810;0.284;2023-02-22T18:13:25;9.20;99.90
58517;DHT22;44308;50.810;0.284;2023-02-22T18:15:51;9.20;99.90
58517;DHT22;44308;50.810;0.284;2023-02-22T18:18:18;9.20;99.90
58517;DHT22;44308;50.810;0.284;2023-02-22T18:20:45;9.20;99.90
58517;DHT22;44308;50.810;0.284;2023-02-22T18:23:13;9.10;99.90
58517;DHT22;44308;50.810;0.284;2023-02-22T18:25:45;9.10;99.90
58517;DHT22;44308;50.810;0.284;2023-02-22T18:28:13;9.10;99.90
58517;DHT22;44308;50.810;0.284;2023-02-22T18:30:39;9.10;99.90
58517;DHT22;44308;50.810;0.284;2023-02-22T18:33:05;9.10;99.90
58517;DHT22;44308;50.810;0.284;2023-02-22T18:35:37;9.10;99.90
58517;DHT22;44308;50.810;0.284;2023-02-22T18:38:03;9.10;99.90
58517;DHT22;44308;50.810;0.284;2023-02-22T18:40:29;9.10;99.90
58517;DHT22;44308;50.810;0.284;2023-02-22T18:42:55;9.10;99.90
58517;DHT22;44308;50.810;0.284;2023-02-22T18:45:21;9.00;99.90